sensor_id;sensor_type;location;lat;lon;timestamp;P1;durP1;ratioP1;P2;durP2;ratioP2
41253;SDS011;26987;59.928;30.306;2023-01-26T00:01:20;4.18;;;1.75;;
41253;SDS011;26987;59.928;30.306;2023-01-26T00:03:50;3.08;;;1.55;;
41253;SDS011;26987;59.928;30.306;2023-01-26T00:06:19;4.32;;;2.15;;
41253;SDS011;26987;59.928;30.306;2023-01-26T00:08:47;2.17;;;1.27;;
41253;SDS011;26987;59.928;30.306;2023-01-26T00:11:18;2.80;;;1.30;;
41253;SDS011;26987;59.928;30.306;2023-01-26T00:13:49;4.28;;;1.75;;
41253;SDS011;26987;59.928;30.306;2023-01-26T00:16:18;3.22;;;1.38;;
41253;SDS011;26987;59.928;30.306;2023-01-26T00:18:47;4.57;;;1.65;;
41253;SDS011;26987;59.928;30.306;2023-01-26T00:21:16;4.35;;;1.70;;
41253;SDS011;26987;59.928;30.306;2023-01-26T00:23:45;4.95;;;1.75;;
41253;SDS011;26987;59.928;30.306;2023-01-26T00:26:15;4.57;;;1.88;;
41253;SDS011;26987;59.928;30.306;2023-01-26T00:28:45;3.13;;;1.80;;
41253;SDS011;26987;59.928;30.306;2023-01-26T00:31:14;5.05;;;1.90;;
41253;SDS011;26987;59.928;30.306;2023-01-26T00:33:45;4.95;;;2.03;;
41253;SDS011;26987;59.928;30.306;2023-01-26T00:36:13;3.20;;;1.80;;
41253;SDS011;26987;59.928;30.306;2023-01-26T00:38:41;3.22;;;1.45;;
41253;SDS011;26987;59.928;30.306;2023-01-26T00:41:09;4.15;;;1.80;;
41253;SDS011;26987;59.928;30.306;2023-01-26T00:43:58;2.13;;;1.38;;
41253;SDS011;26987;59.928;30.306;2023-01-26T00:46:27;3.13;;;1.58;;
41253;SDS011;26987;59.928;30.306;2023-01-26T00:48:57;2.97;;;1.40;;
41253;SDS011;26987;59.928;30.306;2023-01-26T00:51:25;2.30;;;1.45;;
41253;SDS011;26987;59.928;30.306;2023-01-26T00:53:53;3.67;;;1.60;;
41253;SDS011;26987;59.928;30.306;2023-01-26T00:56:21;2.80;;;1.20;;
41253;SDS011;26987;59.928;30.306;2023-01-26T00:58:52;3.30;;;1.70;;
41253;SDS011;26987;59.928;30.306;2023-01-26T01:01:20;6.32;;;1.60;;
41253;SDS011;26987;59.928;30.306;2023-01-26T01:03:48;3.35;;;1.52;;
41253;SDS011;26987;59.928;30.306;2023-01-26T01:06:21;1.45;;;1.20;;
41253;SDS011;26987;59.928;30.306;2023-01-26T01:08:50;2.58;;;1.40;;
41253;SDS011;26987;59.928;30.306;2023-01-26T01:11:18;3.83;;;1.70;;
41253;SDS011;26987;59.928;30.306;2023-01-26T01:13:46;4.70;;;1.73;;
41253;SDS011;26987;59.928;30.306;2023-01-26T01:16:14;3.25;;;1.60;;
41253;SDS011;26987;59.928;30.306;2023-01-26T01:18:42;4.50;;;2.03;;
41253;SDS011;26987;59.928;30.306;2023-01-26T01:21:11;3.17;;;1.85;;
41253;SDS011;26987;59.928;30.306;2023-01-26T01:23:42;3.53;;;2.00;;
41253;SDS011;26987;59.928;30.306;2023-01-26T01:26:10;3.10;;;1.55;;
41253;SDS011;26987;59.928;30.306;2023-01-26T01:28:39;3.78;;;2.05;;
41253;SDS011;26987;59.928;30.306;2023-01-26T01:31:08;4.07;;;2.30;;
41253;SDS011;26987;59.928;30.306;2023-01-26T01:33:38;6.00;;;2.60;;
41253;SDS011;26987;59.928;30.306;2023-01-26T01:36:08;3.33;;;2.25;;
41253;SDS011;26987;59.928;30.306;2023-01-26T01:38:37;5.68;;;2.72;;
41253;SDS011;26987;59.928;30.306;2023-01-26T01:41:07;3.10;;;2.13;;
41253;SDS011;26987;59.928;30.306;2023-01-26T01:43:35;3.97;;;2.10;;
41253;SDS011;26987;59.928;30.306;2023-01-26T01:46:04;3.85;;;2.08;;
41253;SDS011;26987;59.928;30.306;2023-01-26T01:48:41;3.35;;;2.00;;
41253;SDS011;26987;59.928;30.306;2023-01-26T01:51:16;4.35;;;2.08;;
41253;SDS011;26987;59.928;30.306;2023-01-26T01:53:52;5.55;;;1.42;;
41253;SDS011;26987;59.928;30.306;2023-01-26T01:56:25;4.18;;;1.45;;
41253;SDS011;26987;59.928;30.306;2023-01-26T01:58:56;2.17;;;1.45;;
41253;SDS011;26987;59.928;30.306;2023-01-26T02:01:26;2.13;;;1.30;;
41253;SDS011;26987;59.928;30.306;2023-01-26T02:03:55;4.82;;;1.20;;
41253;SDS011;26987;59.928;30.306;2023-01-26T02:06:29;9.48;;;1.45;;
41253;SDS011;26987;59.928;30.306;2023-01-26T02:09:01;3.20;;;0.90;;
41253;SDS011;26987;59.928;30.306;2023-01-26T02:11:35;5.47;;;1.20;;
41253;SDS011;26987;59.928;30.306;2023-01-26T02:14:10;3.42;;;1.00;;
41253;SDS011;26987;59.928;30.306;2023-01-26T02:16:42;2.10;;;0.98;;
41253;SDS011;26987;59.928;30.306;2023-01-26T02:19:11;2.30;;;1.05;;
41253;SDS011;26987;59.928;30.306;2023-01-26T02:21:43;2.92;;;1.52;;
41253;SDS011;26987;59.928;30.306;2023-01-26T02:24:15;2.58;;;0.77;;
41253;SDS011;26987;59.928;30.306;2023-01-26T02:26:50;3.57;;;1.00;;
41253;SDS011;26987;59.928;30.306;2023-01-26T02:29:20;2.90;;;0.93;;
41253;SDS011;26987;59.928;30.306;2023-01-26T02:31:49;3.28;;;1.40;;
41253;SDS011;26987;59.928;30.306;2023-01-26T02:34:19;1.50;;;0.90;;
41253;SDS011;26987;59.928;30.306;2023-01-26T02:36:55;4.65;;;1.30;;
41253;SDS011;26987;59.928;30.306;2023-01-26T02:39:25;2.58;;;1.20;;
41253;SDS011;26987;59.928;30.306;2023-01-26T02:42:05;3.85;;;1.50;;
41253;SDS011;26987;59.928;30.306;2023-01-26T02:44:51;2.55;;;1.05;;
41253;SDS011;26987;59.928;30.306;2023-01-26T02:47:19;2.95;;;1.23;;
41253;SDS011;26987;59.928;30.306;2023-01-26T02:49:48;2.00;;;1.17;;
41253;SDS011;26987;59.928;30.306;2023-01-26T02:52:18;2.50;;;1.30;;
41253;SDS011;26987;59.928;30.306;2023-01-26T02:54:53;2.33;;;1.15;;
41253;SDS011;26987;59.928;30.306;2023-01-26T02:57:40;2.70;;;1.23;;
41253;SDS011;26987;59.928;30.306;2023-01-26T03:00:09;3.38;;;1.77;;
41253;SDS011;26987;59.928;30.306;2023-01-26T03:02:39;2.63;;;1.33;;
41253;SDS011;26987;59.928;30.306;2023-01-26T03:05:08;2.88;;;1.40;;
41253;SDS011;26987;59.928;30.306;2023-01-26T03:07:36;1.67;;;1.10;;
41253;SDS011;26987;59.928;30.306;2023-01-26T03:10:04;2.58;;;1.35;;
41253;SDS011;26987;59.928;30.306;2023-01-26T03:12:33;2.35;;;1.05;;
41253;SDS011;26987;59.928;30.306;2023-01-26T03:15:03;4.38;;;1.45;;
41253;SDS011;26987;59.928;30.306;2023-01-26T03:17:49;3.20;;;1.20;;
41253;SDS011;26987;59.928;30.306;2023-01-26T03:20:37;4.00;;;1.42;;
41253;SDS011;26987;59.928;30.306;2023-01-26T03:23:19;4.28;;;1.10;;
41253;SDS011;26987;59.928;30.306;2023-01-26T03:26:06;2.65;;;1.27;;
41253;SDS011;26987;59.928;30.306;2023-01-26T03:28:54;1.90;;;1.15;;
41253;SDS011;26987;59.928;30.306;2023-01-26T03:31:23;3.33;;;0.90;;
41253;SDS011;26987;59.928;30.306;2023-01-26T03:33:51;2.60;;;0.90;;
41253;SDS011;26987;59.928;30.306;2023-01-26T03:36:19;1.20;;;0.70;;
41253;SDS011;26987;59.928;30.306;2023-01-26T03:38:47;1.60;;;0.90;;
41253;SDS011;26987;59.928;30.306;2023-01-26T03:41:15;1.92;;;1.00;;
41253;SDS011;26987;59.928;30.306;2023-01-26T03:44:00;2.42;;;1.10;;
41253;SDS011;26987;59.928;30.306;2023-01-26T03:46:47;1.45;;;0.73;;
41253;SDS011;26987;59.928;30.306;2023-01-26T03:49:33;2.35;;;1.00;;
41253;SDS011;26987;59.928;30.306;2023-01-26T03:52:19;1.85;;;0.80;;
41253;SDS011;26987;59.928;30.306;2023-01-26T03:55:04;1.70;;;0.93;;
41253;SDS011;26987;59.928;30.306;2023-01-26T03:57:50;2.50;;;1.00;;
41253;SDS011;26987;59.928;30.306;2023-01-26T04:00:18;1.92;;;0.90;;
41253;SDS011;26987;59.928;30.306;2023-01-26T04:02:50;3.00;;;0.80;;
41253;SDS011;26987;59.928;30.306;2023-01-26T04:05:36;1.60;;;0.75;;
41253;SDS011;26987;59.928;30.306;2023-01-26T04:08:21;2.42;;;1.10;;
41253;SDS011;26987;59.928;30.306;2023-01-26T04:10:55;1.45;;;0.77;;
41253;SDS011;26987;59.928;30.306;2023-01-26T04:13:24;2.83;;;0.88;;
41253;SDS011;26987;59.928;30.306;2023-01-26T04:16:14;2.00;;;0.80;;
41253;SDS011;26987;59.928;30.306;2023-01-26T04:19:01;2.10;;;1.00;;
41253;SDS011;26987;59.928;30.306;2023-01-26T04:21:46;1.27;;;0.60;;
41253;SDS011;26987;59.928;30.306;2023-01-26T04:24:17;5.13;;;0.93;;
41253;SDS011;26987;59.928;30.306;2023-01-26T04:26:50;1.40;;;0.80;;
41253;SDS011;26987;59.928;30.306;2023-01-26T04:29:23;1.73;;;0.90;;
41253;SDS011;26987;59.928;30.306;2023-01-26T04:31:51;1.00;;;0.60;;
41253;SDS011;26987;59.928;30.306;2023-01-26T04:34:22;2.78;;;0.80;;
41253;SDS011;26987;59.928;30.306;2023-01-26T04:36:50;2.28;;;1.10;;
41253;SDS011;26987;59.928;30.306;2023-01-26T04:39:21;3.65;;;1.00;;
41253;SDS011;26987;59.928;30.306;2023-01-26T04:41:53;2.33;;;0.60;;
41253;SDS011;26987;59.928;30.306;2023-01-26T04:44:22;1.85;;;1.10;;
41253;SDS011;26987;59.928;30.306;2023-01-26T04:46:50;1.65;;;1.00;;
41253;SDS011;26987;59.928;30.306;2023-01-26T04:49:17;1.70;;;0.80;;
41253;SDS011;26987;59.928;30.306;2023-01-26T04:51:47;2.40;;;0.85;;
41253;SDS011;26987;59.928;30.306;2023-01-26T04:54:16;2.38;;;1.05;;
41253;SDS011;26987;59.928;30.306;2023-01-26T04:56:44;1.67;;;0.70;;
41253;SDS011;26987;59.928;30.306;2023-01-26T04:59:12;2.20;;;1.42;;
41253;SDS011;26987;59.928;30.306;2023-01-26T05:01:42;1.67;;;0.98;;
41253;SDS011;26987;59.928;30.306;2023-01-26T05:04:10;1.88;;;1.10;;
41253;SDS011;26987;59.928;30.306;2023-01-26T05:06:41;2.55;;;1.00;;
41253;SDS011;26987;59.928;30.306;2023-01-26T05:09:11;1.98;;;1.00;;
41253;SDS011;26987;59.928;30.306;2023-01-26T05:11:42;1.40;;;0.70;;
41253;SDS011;26987;59.928;30.306;2023-01-26T05:14:28;1.95;;;1.35;;
41253;SDS011;26987;59.928;30.306;2023-01-26T05:17:16;1.92;;;1.05;;
41253;SDS011;26987;59.928;30.306;2023-01-26T05:19:53;3.30;;;1.17;;
41253;SDS011;26987;59.928;30.306;2023-01-26T05:22:27;2.25;;;1.55;;
41253;SDS011;26987;59.928;30.306;2023-01-26T05:25:31;1.30;;;0.80;;
41253;SDS011;26987;59.928;30.306;2023-01-26T05:28:11;3.38;;;1.30;;
41253;SDS011;26987;59.928;30.306;2023-01-26T05:30:41;3.60;;;1.10;;
41253;SDS011;26987;59.928;30.306;2023-01-26T05:33:09;2.85;;;1.40;;
41253;SDS011;26987;59.928;30.306;2023-01-26T05:35:38;2.13;;;1.10;;
41253;SDS011;26987;59.928;30.306;2023-01-26T05:38:08;2.53;;;1.02;;
41253;SDS011;26987;59.928;30.306;2023-01-26T05:40:38;3.50;;;1.23;;
41253;SDS011;26987;59.928;30.306;2023-01-26T05:43:06;3.17;;;1.60;;
41253;SDS011;26987;59.928;30.306;2023-01-26T05:45:53;1.92;;;1.20;;
41253;SDS011;26987;59.928;30.306;2023-01-26T05:48:21;2.78;;;1.55;;
41253;SDS011;26987;59.928;30.306;2023-01-26T05:50:53;4.75;;;1.58;;
41253;SDS011;26987;59.928;30.306;2023-01-26T05:53:22;6.72;;;1.70;;
41253;SDS011;26987;59.928;30.306;2023-01-26T05:55:52;4.13;;;2.10;;
41253;SDS011;26987;59.928;30.306;2023-01-26T05:58:23;3.67;;;1.50;;
41253;SDS011;26987;59.928;30.306;2023-01-26T06:00:50;4.05;;;1.52;;
41253;SDS011;26987;59.928;30.306;2023-01-26T06:03:24;4.65;;;1.42;;
41253;SDS011;26987;59.928;30.306;2023-01-26T06:05:52;5.85;;;1.35;;
41253;SDS011;26987;59.928;30.306;2023-01-26T06:08:30;2.35;;;1.40;;
41253;SDS011;26987;59.928;30.306;2023-01-26T06:11:19;5.60;;;1.60;;
41253;SDS011;26987;59.928;30.306;2023-01-26T06:14:05;1.88;;;1.45;;
41253;SDS011;26987;59.928;30.306;2023-01-26T06:16:33;5.90;;;1.80;;
41253;SDS011;26987;59.928;30.306;2023-01-26T06:19:02;3.10;;;1.85;;
41253;SDS011;26987;59.928;30.306;2023-01-26T06:21:33;4.43;;;1.70;;
41253;SDS011;26987;59.928;30.306;2023-01-26T06:24:01;5.22;;;1.90;;
41253;SDS011;26987;59.928;30.306;2023-01-26T06:26:31;11.18;;;2.33;;
41253;SDS011;26987;59.928;30.306;2023-01-26T06:28:59;3.42;;;1.48;;
41253;SDS011;26987;59.928;30.306;2023-01-26T06:31:30;2.05;;;1.45;;
41253;SDS011;26987;59.928;30.306;2023-01-26T06:34:00;3.28;;;1.70;;
41253;SDS011;26987;59.928;30.306;2023-01-26T06:36:28;4.53;;;1.75;;
41253;SDS011;26987;59.928;30.306;2023-01-26T06:38:57;3.97;;;1.38;;
41253;SDS011;26987;59.928;30.306;2023-01-26T06:41:25;9.60;;;1.60;;
41253;SDS011;26987;59.928;30.306;2023-01-26T06:43:54;4.85;;;1.55;;
41253;SDS011;26987;59.928;30.306;2023-01-26T06:46:22;4.53;;;2.05;;
41253;SDS011;26987;59.928;30.306;2023-01-26T06:48:53;5.30;;;1.60;;
41253;SDS011;26987;59.928;30.306;2023-01-26T06:54:15;6.43;;;1.85;;
41253;SDS011;26987;59.928;30.306;2023-01-26T06:57:14;7.10;;;1.83;;
41253;SDS011;26987;59.928;30.306;2023-01-26T07:00:11;7.15;;;2.03;;
41253;SDS011;26987;59.928;30.306;2023-01-26T07:02:52;7.45;;;1.70;;
41253;SDS011;26987;59.928;30.306;2023-01-26T07:05:20;12.30;;;2.60;;
41253;SDS011;26987;59.928;30.306;2023-01-26T07:07:48;7.22;;;2.00;;
41253;SDS011;26987;59.928;30.306;2023-01-26T07:10:15;6.47;;;2.70;;
41253;SDS011;26987;59.928;30.306;2023-01-26T07:12:44;6.13;;;2.30;;
41253;SDS011;26987;59.928;30.306;2023-01-26T07:15:13;4.43;;;1.90;;
41253;SDS011;26987;59.928;30.306;2023-01-26T07:17:41;5.90;;;1.67;;
41253;SDS011;26987;59.928;30.306;2023-01-26T07:20:09;3.00;;;1.60;;
41253;SDS011;26987;59.928;30.306;2023-01-26T07:22:37;4.47;;;1.90;;
41253;SDS011;26987;59.928;30.306;2023-01-26T07:25:06;3.92;;;1.60;;
41253;SDS011;26987;59.928;30.306;2023-01-26T07:27:34;3.85;;;1.63;;
41253;SDS011;26987;59.928;30.306;2023-01-26T07:30:02;3.60;;;1.50;;
41253;SDS011;26987;59.928;30.306;2023-01-26T07:32:31;3.03;;;1.45;;
41253;SDS011;26987;59.928;30.306;2023-01-26T07:34:59;7.93;;;1.60;;
41253;SDS011;26987;59.928;30.306;2023-01-26T07:37:27;7.38;;;2.67;;
41253;SDS011;26987;59.928;30.306;2023-01-26T07:39:55;2.92;;;1.48;;
41253;SDS011;26987;59.928;30.306;2023-01-26T07:42:23;2.65;;;1.17;;
41253;SDS011;26987;59.928;30.306;2023-01-26T07:45:17;6.13;;;1.80;;
41253;SDS011;26987;59.928;30.306;2023-01-26T07:47:46;3.15;;;1.70;;
41253;SDS011;26987;59.928;30.306;2023-01-26T07:50:14;5.45;;;1.63;;
41253;SDS011;26987;59.928;30.306;2023-01-26T07:52:43;6.80;;;1.30;;
41253;SDS011;26987;59.928;30.306;2023-01-26T07:55:11;6.32;;;1.50;;
41253;SDS011;26987;59.928;30.306;2023-01-26T07:57:39;5.88;;;1.67;;
41253;SDS011;26987;59.928;30.306;2023-01-26T08:00:08;3.60;;;1.70;;
41253;SDS011;26987;59.928;30.306;2023-01-26T08:02:39;10.85;;;1.83;;
41253;SDS011;26987;59.928;30.306;2023-01-26T08:05:09;5.75;;;1.67;;
41253;SDS011;26987;59.928;30.306;2023-01-26T08:07:37;6.32;;;1.83;;
41253;SDS011;26987;59.928;30.306;2023-01-26T08:10:05;5.03;;;2.03;;
41253;SDS011;26987;59.928;30.306;2023-01-26T08:12:35;4.47;;;1.98;;
41253;SDS011;26987;59.928;30.306;2023-01-26T08:15:04;6.22;;;2.25;;
41253;SDS011;26987;59.928;30.306;2023-01-26T08:17:32;7.10;;;1.70;;
41253;SDS011;26987;59.928;30.306;2023-01-26T08:20:00;12.15;;;1.90;;
41253;SDS011;26987;59.928;30.306;2023-01-26T08:22:30;4.63;;;1.95;;
41253;SDS011;26987;59.928;30.306;2023-01-26T08:24:57;5.82;;;2.40;;
41253;SDS011;26987;59.928;30.306;2023-01-26T08:27:25;6.15;;;2.05;;
41253;SDS011;26987;59.928;30.306;2023-01-26T08:29:54;4.82;;;2.20;;
41253;SDS011;26987;59.928;30.306;2023-01-26T08:32:21;4.93;;;2.17;;
41253;SDS011;26987;59.928;30.306;2023-01-26T08:34:49;8.20;;;2.10;;
41253;SDS011;26987;59.928;30.306;2023-01-26T08:37:17;6.45;;;2.05;;
41253;SDS011;26987;59.928;30.306;2023-01-26T08:39:47;8.48;;;2.85;;
41253;SDS011;26987;59.928;30.306;2023-01-26T08:42:15;4.60;;;2.08;;
41253;SDS011;26987;59.928;30.306;2023-01-26T08:44:42;4.47;;;2.08;;
41253;SDS011;26987;59.928;30.306;2023-01-26T08:47:10;5.60;;;1.90;;
41253;SDS011;26987;59.928;30.306;2023-01-26T08:49:38;4.57;;;2.20;;
41253;SDS011;26987;59.928;30.306;2023-01-26T08:52:06;5.22;;;2.58;;
41253;SDS011;26987;59.928;30.306;2023-01-26T08:54:34;7.38;;;2.85;;
41253;SDS011;26987;59.928;30.306;2023-01-26T08:57:03;5.38;;;2.17;;
41253;SDS011;26987;59.928;30.306;2023-01-26T08:59:31;4.55;;;2.10;;
41253;SDS011;26987;59.928;30.306;2023-01-26T09:01:59;3.38;;;1.80;;
41253;SDS011;26987;59.928;30.306;2023-01-26T09:04:27;3.58;;;1.80;;
41253;SDS011;26987;59.928;30.306;2023-01-26T09:06:55;7.20;;;2.35;;
41253;SDS011;26987;59.928;30.306;2023-01-26T09:09:22;4.68;;;2.20;;
41253;SDS011;26987;59.928;30.306;2023-01-26T09:11:53;3.38;;;1.67;;
41253;SDS011;26987;59.928;30.306;2023-01-26T09:14:23;3.30;;;1.60;;
41253;SDS011;26987;59.928;30.306;2023-01-26T09:16:51;4.60;;;2.33;;
41253;SDS011;26987;59.928;30.306;2023-01-26T09:19:19;3.00;;;1.90;;
41253;SDS011;26987;59.928;30.306;2023-01-26T09:21:50;4.95;;;2.17;;
41253;SDS011;26987;59.928;30.306;2023-01-26T09:24:18;3.30;;;1.77;;
41253;SDS011;26987;59.928;30.306;2023-01-26T09:26:46;2.47;;;1.30;;
41253;SDS011;26987;59.928;30.306;2023-01-26T09:29:14;2.25;;;1.30;;
41253;SDS011;26987;59.928;30.306;2023-01-26T09:31:44;6.00;;;1.80;;
41253;SDS011;26987;59.928;30.306;2023-01-26T09:34:12;4.22;;;1.80;;
41253;SDS011;26987;59.928;30.306;2023-01-26T09:36:39;5.85;;;1.95;;
41253;SDS011;26987;59.928;30.306;2023-01-26T09:39:07;7.20;;;1.70;;
41253;SDS011;26987;59.928;30.306;2023-01-26T09:41:39;8.55;;;2.00;;
41253;SDS011;26987;59.928;30.306;2023-01-26T09:44:17;9.88;;;2.38;;
41253;SDS011;26987;59.928;30.306;2023-01-26T09:46:53;3.08;;;1.88;;
41253;SDS011;26987;59.928;30.306;2023-01-26T09:49:40;4.93;;;2.13;;
41253;SDS011;26987;59.928;30.306;2023-01-26T09:52:15;4.65;;;2.25;;
41253;SDS011;26987;59.928;30.306;2023-01-26T09:54:50;4.47;;;1.50;;
41253;SDS011;26987;59.928;30.306;2023-01-26T09:57:19;10.02;;;2.40;;
41253;SDS011;26987;59.928;30.306;2023-01-26T09:59:52;4.30;;;1.95;;
41253;SDS011;26987;59.928;30.306;2023-01-26T10:02:30;5.18;;;2.47;;
41253;SDS011;26987;59.928;30.306;2023-01-26T10:05:10;4.72;;;2.13;;
41253;SDS011;26987;59.928;30.306;2023-01-26T10:07:44;5.63;;;2.17;;
41253;SDS011;26987;59.928;30.306;2023-01-26T10:10:14;5.53;;;1.77;;
41253;SDS011;26987;59.928;30.306;2023-01-26T10:12:46;5.03;;;2.53;;
41253;SDS011;26987;59.928;30.306;2023-01-26T10:15:20;5.20;;;2.30;;
41253;SDS011;26987;59.928;30.306;2023-01-26T10:17:58;3.95;;;2.22;;
41253;SDS011;26987;59.928;30.306;2023-01-26T10:20:30;5.10;;;2.33;;
41253;SDS011;26987;59.928;30.306;2023-01-26T10:23:00;4.55;;;2.15;;
41253;SDS011;26987;59.928;30.306;2023-01-26T10:25:33;9.57;;;3.13;;
41253;SDS011;26987;59.928;30.306;2023-01-26T10:28:06;7.32;;;3.03;;
41253;SDS011;26987;59.928;30.306;2023-01-26T10:30:39;4.47;;;2.38;;
41253;SDS011;26987;59.928;30.306;2023-01-26T10:33:13;4.05;;;2.28;;
41253;SDS011;26987;59.928;30.306;2023-01-26T10:35:44;4.18;;;2.80;;
41253;SDS011;26987;59.928;30.306;2023-01-26T10:38:25;7.57;;;2.58;;
41253;SDS011;26987;59.928;30.306;2023-01-26T10:43:53;7.30;;;2.60;;
41253;SDS011;26987;59.928;30.306;2023-01-26T10:46:23;4.60;;;2.90;;
41253;SDS011;26987;59.928;30.306;2023-01-26T10:48:55;5.45;;;3.15;;
41253;SDS011;26987;59.928;30.306;2023-01-26T10:51:26;5.38;;;2.65;;
41253;SDS011;26987;59.928;30.306;2023-01-26T10:56:59;7.22;;;3.28;;
41253;SDS011;26987;59.928;30.306;2023-01-26T10:59:30;5.43;;;3.45;;
41253;SDS011;26987;59.928;30.306;2023-01-26T11:02:00;8.55;;;3.30;;
41253;SDS011;26987;59.928;30.306;2023-01-26T11:04:31;7.35;;;3.45;;
41253;SDS011;26987;59.928;30.306;2023-01-26T11:07:23;5.90;;;2.70;;
41253;SDS011;26987;59.928;30.306;2023-01-26T11:09:52;5.32;;;3.20;;
41253;SDS011;26987;59.928;30.306;2023-01-26T11:12:23;4.88;;;3.58;;
41253;SDS011;26987;59.928;30.306;2023-01-26T11:14:58;6.55;;;2.80;;
41253;SDS011;26987;59.928;30.306;2023-01-26T11:17:30;8.10;;;3.63;;
41253;SDS011;26987;59.928;30.306;2023-01-26T11:20:13;7.57;;;3.17;;
41253;SDS011;26987;59.928;30.306;2023-01-26T11:23:13;10.20;;;3.00;;
41253;SDS011;26987;59.928;30.306;2023-01-26T11:25:55;5.82;;;3.65;;
41253;SDS011;26987;59.928;30.306;2023-01-26T11:28:38;5.82;;;3.08;;
41253;SDS011;26987;59.928;30.306;2023-01-26T11:31:20;4.97;;;3.20;;
41253;SDS011;26987;59.928;30.306;2023-01-26T11:33:59;4.85;;;3.05;;
41253;SDS011;26987;59.928;30.306;2023-01-26T11:36:40;5.38;;;2.95;;
41253;SDS011;26987;59.928;30.306;2023-01-26T11:39:21;8.95;;;2.55;;
41253;SDS011;26987;59.928;30.306;2023-01-26T11:41:59;4.45;;;2.67;;
41253;SDS011;26987;59.928;30.306;2023-01-26T11:44:44;6.22;;;3.00;;
41253;SDS011;26987;59.928;30.306;2023-01-26T11:47:38;6.55;;;3.40;;
41253;SDS011;26987;59.928;30.306;2023-01-26T11:50:21;6.45;;;2.63;;
41253;SDS011;26987;59.928;30.306;2023-01-26T11:53:08;7.43;;;2.55;;
41253;SDS011;26987;59.928;30.306;2023-01-26T11:56:09;7.05;;;2.40;;
41253;SDS011;26987;59.928;30.306;2023-01-26T11:58:47;4.68;;;2.40;;
41253;SDS011;26987;59.928;30.306;2023-01-26T12:01:20;4.15;;;2.38;;
41253;SDS011;26987;59.928;30.306;2023-01-26T12:03:54;7.38;;;2.97;;
41253;SDS011;26987;59.928;30.306;2023-01-26T12:06:24;9.23;;;3.50;;
41253;SDS011;26987;59.928;30.306;2023-01-26T12:09:00;10.00;;;3.47;;
41253;SDS011;26987;59.928;30.306;2023-01-26T12:11:32;5.63;;;2.95;;
41253;SDS011;26987;59.928;30.306;2023-01-26T12:14:06;9.15;;;2.97;;
41253;SDS011;26987;59.928;30.306;2023-01-26T12:16:52;8.40;;;2.95;;
41253;SDS011;26987;59.928;30.306;2023-01-26T12:19:33;11.38;;;3.17;;
41253;SDS011;26987;59.928;30.306;2023-01-26T12:22:10;9.13;;;3.10;;
41253;SDS011;26987;59.928;30.306;2023-01-26T12:24:44;8.55;;;3.20;;
41253;SDS011;26987;59.928;30.306;2023-01-26T12:27:18;10.25;;;3.60;;
41253;SDS011;26987;59.928;30.306;2023-01-26T12:29:51;12.77;;;3.22;;
41253;SDS011;26987;59.928;30.306;2023-01-26T12:32:28;5.38;;;2.97;;
41253;SDS011;26987;59.928;30.306;2023-01-26T12:34:56;6.28;;;2.80;;
41253;SDS011;26987;59.928;30.306;2023-01-26T12:40:24;6.03;;;3.03;;
41253;SDS011;26987;59.928;30.306;2023-01-26T12:43:06;6.35;;;2.47;;
41253;SDS011;26987;59.928;30.306;2023-01-26T12:45:46;8.25;;;2.60;;
41253;SDS011;26987;59.928;30.306;2023-01-26T12:48:21;5.53;;;2.90;;
41253;SDS011;26987;59.928;30.306;2023-01-26T12:50:52;6.93;;;2.38;;
41253;SDS011;26987;59.928;30.306;2023-01-26T12:53:26;4.40;;;2.33;;
41253;SDS011;26987;59.928;30.306;2023-01-26T12:56:00;8.07;;;2.20;;
41253;SDS011;26987;59.928;30.306;2023-01-26T12:58:38;10.82;;;2.50;;
41253;SDS011;26987;59.928;30.306;2023-01-26T13:01:09;5.45;;;2.05;;
41253;SDS011;26987;59.928;30.306;2023-01-26T13:03:40;5.50;;;1.85;;
41253;SDS011;26987;59.928;30.306;2023-01-26T13:06:19;3.97;;;1.85;;
41253;SDS011;26987;59.928;30.306;2023-01-26T13:08:49;3.25;;;1.40;;
41253;SDS011;26987;59.928;30.306;2023-01-26T13:11:43;4.22;;;1.60;;
41253;SDS011;26987;59.928;30.306;2023-01-26T13:14:26;4.30;;;1.60;;
41253;SDS011;26987;59.928;30.306;2023-01-26T13:16:57;2.72;;;1.27;;
41253;SDS011;26987;59.928;30.306;2023-01-26T13:20:01;2.97;;;1.08;;
41253;SDS011;26987;59.928;30.306;2023-01-26T13:22:48;2.55;;;1.23;;
41253;SDS011;26987;59.928;30.306;2023-01-26T13:25:17;2.88;;;1.25;;
41253;SDS011;26987;59.928;30.306;2023-01-26T13:27:48;3.95;;;1.10;;
41253;SDS011;26987;59.928;30.306;2023-01-26T13:33:15;3.08;;;1.25;;
41253;SDS011;26987;59.928;30.306;2023-01-26T13:35:50;6.63;;;1.60;;
41253;SDS011;26987;59.928;30.306;2023-01-26T13:38:23;3.42;;;1.42;;
41253;SDS011;26987;59.928;30.306;2023-01-26T13:40:56;5.05;;;1.33;;
41253;SDS011;26987;59.928;30.306;2023-01-26T13:43:29;8.88;;;1.58;;
41253;SDS011;26987;59.928;30.306;2023-01-26T13:46:07;6.82;;;1.50;;
41253;SDS011;26987;59.928;30.306;2023-01-26T13:48:42;4.30;;;1.40;;
41253;SDS011;26987;59.928;30.306;2023-01-26T13:51:14;4.82;;;1.73;;
41253;SDS011;26987;59.928;30.306;2023-01-26T13:53:49;11.95;;;2.17;;
41253;SDS011;26987;59.928;30.306;2023-01-26T13:56:24;5.13;;;1.33;;
41253;SDS011;26987;59.928;30.306;2023-01-26T13:59:01;11.82;;;2.92;;
41253;SDS011;26987;59.928;30.306;2023-01-26T14:01:31;5.53;;;1.83;;
41253;SDS011;26987;59.928;30.306;2023-01-26T14:04:02;5.05;;;1.30;;
41253;SDS011;26987;59.928;30.306;2023-01-26T14:06:33;4.10;;;2.20;;
41253;SDS011;26987;59.928;30.306;2023-01-26T14:09:03;6.40;;;1.83;;
41253;SDS011;26987;59.928;30.306;2023-01-26T14:11:33;2.55;;;1.30;;
41253;SDS011;26987;59.928;30.306;2023-01-26T14:14:02;5.30;;;2.30;;
41253;SDS011;26987;59.928;30.306;2023-01-26T14:16:31;4.80;;;1.83;;
41253;SDS011;26987;59.928;30.306;2023-01-26T14:19:04;3.42;;;1.80;;
41253;SDS011;26987;59.928;30.306;2023-01-26T14:21:47;5.28;;;2.05;;
41253;SDS011;26987;59.928;30.306;2023-01-26T14:24:17;5.63;;;1.83;;
41253;SDS011;26987;59.928;30.306;2023-01-26T14:26:46;3.72;;;1.75;;
41253;SDS011;26987;59.928;30.306;2023-01-26T14:29:18;9.27;;;2.10;;
41253;SDS011;26987;59.928;30.306;2023-01-26T14:31:48;5.05;;;2.55;;
41253;SDS011;26987;59.928;30.306;2023-01-26T14:34:18;5.38;;;1.88;;
41253;SDS011;26987;59.928;30.306;2023-01-26T14:36:49;3.95;;;1.83;;
41253;SDS011;26987;59.928;30.306;2023-01-26T14:39:32;3.38;;;1.42;;
41253;SDS011;26987;59.928;30.306;2023-01-26T14:42:00;3.42;;;1.67;;
41253;SDS011;26987;59.928;30.306;2023-01-26T14:44:30;4.60;;;1.35;;
41253;SDS011;26987;59.928;30.306;2023-01-26T14:46:59;7.20;;;1.85;;
41253;SDS011;26987;59.928;30.306;2023-01-26T14:49:34;6.82;;;1.40;;
41253;SDS011;26987;59.928;30.306;2023-01-26T14:52:15;4.85;;;1.30;;
41253;SDS011;26987;59.928;30.306;2023-01-26T14:54:48;2.85;;;1.42;;
41253;SDS011;26987;59.928;30.306;2023-01-26T14:57:19;6.97;;;1.27;;
41253;SDS011;26987;59.928;30.306;2023-01-26T14:59:50;4.30;;;1.00;;
41253;SDS011;26987;59.928;30.306;2023-01-26T15:02:20;5.13;;;1.10;;
41253;SDS011;26987;59.928;30.306;2023-01-26T15:04:51;2.22;;;1.10;;
41253;SDS011;26987;59.928;30.306;2023-01-26T15:07:32;2.17;;;1.20;;
41253;SDS011;26987;59.928;30.306;2023-01-26T15:10:03;2.95;;;2.00;;
41253;SDS011;26987;59.928;30.306;2023-01-26T15:12:46;6.32;;;1.40;;
41253;SDS011;26987;59.928;30.306;2023-01-26T15:17:58;2.25;;;1.17;;
41253;SDS011;26987;59.928;30.306;2023-01-26T15:20:40;4.13;;;1.80;;
41253;SDS011;26987;59.928;30.306;2023-01-26T15:23:20;5.75;;;2.85;;
41253;SDS011;26987;59.928;30.306;2023-01-26T15:25:50;6.38;;;2.00;;